createdAt,value
2017-06-21T00:02:03.169Z,21.8
2017-06-21T00:07:03.094Z,21.6
2017-06-21T00:12:02.911Z,21.5
2017-06-21T00:17:03.712Z,21.5
2017-06-21T00:22:03.279Z,21.3
2017-06-21T00:27:02.845Z,21.2
2017-06-21T00:32:02.906Z,21.0
2017-06-21T00:37:03.055Z,21.0
2017-06-21T00:42:02.760Z,20.9
2017-06-21T00:47:03.429Z,20.8
2017-06-21T00:52:02.923Z,20.8
2017-06-21T00:57:03.604Z,20.7
2017-06-21T01:02:03.429Z,20.7
2017-06-21T01:07:03.354Z,20.6
2017-06-21T01:12:03.230Z,20.6
2017-06-21T01:17:03.468Z,20.5
2017-06-21T01:22:02.773Z,20.5
2017-06-21T01:27:03.499Z,20.4
2017-06-21T01:32:03.293Z,20.4
2017-06-21T01:37:03.212Z,20.3
2017-06-21T01:42:02.890Z,20.2
2017-06-21T01:47:03.657Z,20.1
2017-06-21T01:52:03.032Z,20.1
2017-06-21T01:57:02.692Z,20.0
2017-06-21T02:02:03.393Z,19.9
2017-06-21T02:07:02.923Z,19.8
2017-06-21T02:12:03.644Z,19.9
2017-06-21T02:17:03.354Z,19.8
2017-06-21T02:22:03.474Z,19.7
2017-06-21T02:27:03.595Z,19.5
2017-06-21T02:32:03.345Z,19.4
2017-06-21T02:37:03.284Z,19.3
2017-06-21T02:42:03.625Z,19.4
2017-06-21T02:47:13.772Z,19.4
2017-06-21T02:52:03.431Z,19.4
2017-06-21T02:57:03.447Z,19.3
2017-06-21T03:02:13.542Z,19.3
2017-06-21T03:07:03.350Z,19.1
2017-06-21T03:12:02.857Z,18.9
2017-06-21T03:17:11.045Z,18.8
2017-06-21T03:22:03.644Z,18.8
2017-06-21T03:27:03.221Z,18.8
2017-06-21T03:32:13.464Z,18.8
2017-06-21T03:37:03.275Z,18.8
2017-06-21T03:42:02.612Z,18.8
2017-06-21T03:47:13.333Z,18.7
2017-06-21T03:52:03.408Z,18.7
2017-06-21T03:57:02.817Z,18.6
2017-06-21T04:02:13.822Z,18.8
2017-06-21T04:07:02.828Z,18.8
2017-06-21T04:12:03.454Z,19.0
2017-06-21T04:22:03.384Z,19.4
2017-06-21T04:27:02.738Z,19.5
2017-06-21T04:32:17.832Z,19.5
2017-06-21T04:37:03.930Z,19.8
2017-06-21T04:42:02.758Z,20.2
2017-06-21T04:47:13.555Z,20.4
2017-06-21T04:52:02.627Z,20.3
2017-06-21T04:57:03.054Z,20.6
2017-06-21T05:02:23.235Z,21.0
2017-06-21T05:07:03.444Z,21.3
2017-06-21T05:12:03.111Z,21.5
2017-06-21T05:17:18.204Z,21.7
2017-06-21T05:22:03.327Z,22.0
2017-06-21T05:27:02.804Z,22.2
2017-06-21T05:32:17.683Z,22.2
2017-06-21T05:37:03.308Z,22.5
2017-06-21T05:42:02.765Z,23.0
2017-06-21T05:52:03.508Z,23.4
2017-06-21T05:57:02.937Z,23.7
2017-06-21T06:02:13.506Z,24.5
2017-06-21T06:07:03.135Z,24.4
2017-06-21T06:12:03.645Z,24.9
2017-06-21T06:17:17.922Z,25.4
2017-06-21T06:22:03.259Z,25.5
2017-06-21T06:27:03.645Z,25.5
2017-06-21T06:32:08.916Z,25.9
2017-06-21T06:37:03.144Z,25.8
2017-06-21T06:42:03.479Z,26.3
2017-06-21T06:47:13.416Z,26.7
2017-06-21T06:52:02.910Z,26.9
2017-06-21T06:57:02.834Z,26.9
2017-06-21T07:07:03.471Z,27.5
2017-06-21T07:12:02.930Z,28.2
2017-06-21T07:17:18.262Z,28.1
2017-06-21T07:22:03.338Z,28.7
2017-06-21T07:27:02.722Z,28.7
2017-06-21T07:32:17.562Z,28.9
2017-06-21T07:37:02.724Z,29.3
2017-06-21T07:42:03.155Z,30.0
2017-06-21T07:47:13.799Z,30.0
2017-06-21T07:52:03.559Z,30.4
2017-06-21T07:57:03.016Z,30.7
2017-06-21T08:02:10.976Z,31.0
2017-06-21T08:07:02.856Z,31.5
2017-06-21T08:12:03.438Z,31.8
2017-06-21T08:17:13.216Z,31.7
2017-06-21T08:22:03.344Z,32.2
2017-06-21T08:27:03.680Z,32.6
2017-06-21T08:37:03.262Z,32.7
2017-06-21T08:42:03.431Z,33.1
2017-06-21T08:52:02.854Z,34.2
2017-06-21T08:57:03.328Z,34.5
2017-06-21T09:02:13.006Z,34.5
2017-06-21T09:07:02.885Z,35.2
2017-06-21T09:12:03.022Z,35.2
2017-06-21T09:17:13.964Z,35.5
2017-06-21T09:22:03.287Z,35.9
2017-06-21T09:27:03.196Z,35.9
2017-06-21T09:32:13.700Z,36.5
2017-06-21T09:37:03.012Z,36.5
2017-06-21T09:42:03.410Z,36.9
2017-06-21T09:47:22.581Z,37.3
2017-06-21T09:52:02.612Z,37.7
2017-06-21T09:57:03.054Z,38.0
2017-06-21T10:02:17.883Z,38.7
2017-06-21T10:07:03.421Z,38.7
2017-06-21T10:12:03.013Z,38.6
2017-06-21T10:17:13.806Z,38.6
2017-06-21T10:22:03.510Z,39.2
2017-06-21T10:27:02.870Z,39.2
2017-06-21T10:32:13.803Z,38.6
2017-06-21T10:37:02.821Z,38.6
2017-06-21T10:42:03.174Z,38.1
2017-06-21T10:47:17.317Z,36.7
2017-06-21T10:52:03.407Z,36.6
2017-06-21T10:57:02.930Z,37.3
2017-06-21T11:02:13.505Z,38.0
2017-06-21T11:07:02.918Z,37.4
2017-06-21T11:12:03.417Z,37.4
2017-06-21T11:17:13.328Z,36.9
2017-06-21T11:22:03.449Z,36.9
2017-06-21T11:27:02.855Z,37.3
2017-06-21T11:32:13.521Z,36.5
2017-06-21T11:37:03.421Z,36.5
2017-06-21T11:42:02.854Z,36.7
2017-06-21T11:47:18.048Z,37.4
2017-06-21T11:52:03.386Z,37.4
2017-06-21T11:57:02.794Z,37.5
2017-06-21T12:02:13.836Z,37.6
2017-06-21T12:07:02.972Z,37.3
2017-06-21T12:12:03.528Z,37.6
2017-06-21T12:17:13.276Z,37.6
2017-06-21T12:22:02.901Z,38.3
2017-06-21T12:27:03.339Z,38.6
2017-06-21T12:32:13.906Z,38.7
2017-06-21T12:37:03.503Z,38.7
2017-06-21T12:42:03.322Z,39.1
2017-06-21T12:47:13.753Z,39.3
2017-06-21T12:52:03.532Z,39.3
2017-06-21T12:57:02.945Z,39.1
2017-06-21T13:02:13.605Z,39.2
2017-06-21T13:07:03.508Z,38.5
2017-06-21T13:12:03.141Z,38.5
2017-06-21T13:17:14.097Z,38.4
2017-06-21T13:22:03.354Z,38.3
2017-06-21T13:27:03.681Z,38.5
2017-06-21T13:32:13.489Z,38.6
2017-06-21T13:37:03.423Z,38.6
2017-06-21T13:42:02.782Z,38.4
2017-06-21T13:47:17.982Z,38.6
2017-06-21T13:52:03.350Z,39.3
2017-06-21T13:57:02.726Z,39.3
2017-06-21T14:02:13.728Z,39.3
2017-06-21T14:07:03.412Z,39.6
2017-06-21T14:12:03.021Z,39.6
2017-06-21T14:17:18.083Z,39.1
2017-06-21T14:22:02.779Z,39.1
2017-06-21T14:27:03.158Z,39.8
2017-06-21T14:32:13.992Z,40.5
2017-06-21T14:37:02.734Z,40.4
2017-06-21T14:42:03.105Z,41.2
2017-06-21T14:47:11.526Z,42.1
2017-06-21T14:52:03.412Z,43.6
2017-06-21T14:57:02.833Z,43.6
2017-06-21T15:02:14.094Z,47.4
2017-06-21T15:07:03.493Z,47.4
2017-06-21T15:12:03.004Z,49.7
2017-06-21T15:17:13.972Z,49.6
2017-06-21T15:22:03.519Z,49.1
2017-06-21T15:27:02.873Z,49.1
2017-06-21T15:32:13.599Z,49.2
2017-06-21T15:37:02.872Z,49.2
2017-06-21T15:42:03.196Z,50.4
2017-06-21T15:47:13.945Z,51.0
2017-06-21T15:52:03.394Z,52.1
2017-06-21T15:57:02.743Z,52.1
2017-06-21T16:02:13.613Z,51.6
2017-06-21T16:07:03.033Z,50.4
2017-06-21T16:12:03.511Z,50.3
2017-06-21T16:17:13.549Z,48.8
2017-06-21T16:22:03.438Z,47.8
2017-06-21T16:27:02.778Z,47.1
2017-06-21T16:32:13.682Z,46.8
2017-06-21T16:37:03.001Z,48.3
2017-06-21T16:42:03.362Z,48.3
2017-06-21T16:47:13.226Z,48.0
2017-06-21T16:52:03.311Z,47.7
2017-06-21T16:57:03.585Z,47.7
2017-06-21T17:02:13.789Z,48.4
2017-06-21T17:07:03.258Z,49.1
2017-06-21T17:12:02.758Z,48.8
2017-06-21T17:22:03.348Z,50.1
2017-06-21T17:27:03.576Z,50.1
2017-06-21T17:32:19.932Z,50.2
2017-06-21T17:37:03.177Z,49.4
2017-06-21T17:42:03.414Z,49.8
2017-06-21T17:47:13.542Z,49.6
2017-06-21T17:52:02.661Z,47.9
2017-06-21T17:57:02.951Z,47.9
2017-06-21T18:02:16.122Z,46.3
2017-06-21T18:07:02.956Z,46.1
2017-06-21T18:12:03.390Z,46.1
2017-06-21T18:17:13.305Z,40.2
2017-06-21T18:22:03.597Z,37.2
2017-06-21T18:27:02.937Z,37.1
2017-06-21T18:32:13.677Z,39.0
2017-06-21T18:37:03.581Z,35.4
2017-06-21T18:42:02.912Z,35.3
2017-06-21T18:47:13.683Z,33.0
2017-06-21T18:52:02.957Z,32.3
2017-06-21T18:57:03.051Z,32.3
2017-06-21T19:02:13.808Z,31.4
2017-06-21T19:07:03.094Z,30.9
2017-06-21T19:12:03.534Z,30.9
2017-06-21T19:17:13.498Z,30.6
2017-06-21T19:22:03.410Z,30.2
2017-06-21T19:27:02.790Z,29.8
2017-06-21T19:32:13.679Z,29.8
2017-06-21T19:37:03.624Z,29.6
2017-06-21T19:42:03.301Z,29.3
2017-06-21T19:47:13.744Z,29.0
2017-06-21T19:52:02.896Z,28.3
2017-06-21T19:57:03.259Z,28.2
2017-06-21T20:02:14.053Z,27.8
2017-06-21T20:07:03.020Z,27.4
2017-06-21T20:12:03.406Z,27.2
2017-06-21T20:17:11.549Z,27.1
2017-06-21T20:22:03.470Z,26.7
2017-06-21T20:27:02.880Z,26.5
2017-06-21T20:32:07.582Z,26.4
2017-06-21T20:37:02.922Z,26.3
2017-06-21T20:42:03.160Z,26.0
2017-06-21T20:47:03.932Z,25.6
2017-06-21T20:52:02.810Z,25.6
2017-06-21T20:57:03.064Z,25.4
2017-06-21T21:02:03.501Z,25.3
2017-06-21T21:07:02.989Z,25.2
2017-06-21T21:12:03.244Z,25.0
2017-06-21T21:17:03.590Z,25.0
2017-06-21T21:22:03.069Z,24.9
2017-06-21T21:27:03.280Z,24.8
2017-06-21T21:32:03.600Z,24.7
2017-06-21T21:37:03.000Z,24.6
2017-06-21T21:42:03.144Z,24.2
2017-06-21T21:47:03.858Z,24.0
2017-06-21T21:52:02.821Z,23.9
2017-06-21T21:57:03.048Z,23.9
2017-06-21T22:02:03.541Z,23.8
2017-06-21T22:07:03.063Z,23.7
2017-06-21T22:12:03.099Z,23.6
2017-06-21T22:22:03.281Z,23.4
2017-06-21T22:27:03.543Z,23.2
2017-06-21T22:32:03.042Z,23.0
2017-06-21T22:37:03.184Z,22.9
2017-06-21T22:42:03.525Z,22.8
2017-06-21T22:47:03.339Z,22.6
2017-06-21T22:52:02.842Z,22.6
2017-06-21T22:57:03.316Z,22.3
2017-06-21T23:02:02.897Z,22.2
2017-06-21T23:07:03.498Z,22.0
2017-06-21T23:12:03.299Z,22.0
2017-06-21T23:17:03.344Z,21.7
2017-06-21T23:22:03.148Z,21.6
2017-06-21T23:27:02.950Z,21.5
2017-06-21T23:32:03.562Z,21.5
2017-06-21T23:37:03.314Z,21.5
2017-06-21T23:42:03.013Z,21.4
2017-06-21T23:47:03.673Z,21.3
2017-06-21T23:52:03.138Z,21.2
2017-06-21T23:57:02.821Z,21.2
